createdAt,value
2017-11-30T00:00:07.017Z,183.80
2017-11-30T00:01:07.476Z,186.40
2017-11-30T00:02:07.501Z,197.30
2017-11-30T00:03:07.032Z,195.50
2017-11-30T00:04:06.895Z,193.60
2017-11-30T00:05:07.193Z,188.20
2017-11-30T00:06:07.920Z,209.50
2017-11-30T00:07:07.153Z,196.50
2017-11-30T00:08:07.640Z,208.10
2017-11-30T00:09:07.031Z,203.50
2017-11-30T00:10:07.382Z,221.70
2017-11-30T00:11:06.687Z,217.80
2017-11-30T00:12:06.949Z,224.00
2017-11-30T00:13:07.250Z,199.50
2017-11-30T00:14:07.485Z,218.40
2017-11-30T00:15:06.764Z,230.80
2017-11-30T00:16:07.061Z,251.70
2017-11-30T00:17:07.251Z,238.70
2017-11-30T00:18:07.513Z,236.30
2017-11-30T00:19:06.659Z,236.40
2017-11-30T00:20:07.101Z,238.00
2017-11-30T00:21:07.440Z,248.90
2017-11-30T00:22:06.635Z,266.80
2017-11-30T00:23:06.915Z,261.60
2017-11-30T00:24:07.156Z,259.40
2017-11-30T00:25:07.617Z,272.80
2017-11-30T00:26:06.857Z,265.80
2017-11-30T00:27:07.154Z,260.80
2017-11-30T00:27:43.916Z,281.00
2017-11-30T00:28:44.249Z,272.90
2017-11-30T00:29:44.715Z,291.00
2017-11-30T00:30:43.971Z,295.00
2017-11-30T00:31:44.281Z,269.20
2017-11-30T00:32:44.498Z,304.70
2017-11-30T00:33:44.987Z,282.30
2017-11-30T00:34:44.236Z,274.50
2017-11-30T00:35:45.017Z,292.10
2017-11-30T00:36:44.210Z,309.60
2017-11-30T00:37:44.433Z,290.50
2017-11-30T00:38:44.895Z,263.80
2017-11-30T00:39:44.444Z,299.40
2017-11-30T00:40:44.007Z,303.70
2017-11-30T00:41:44.727Z,293.30
2017-11-30T00:42:44.026Z,279.70
2017-11-30T00:43:44.274Z,287.60
2017-11-30T00:44:44.509Z,286.60
2017-11-30T00:45:44.817Z,275.60
2017-11-30T00:46:44.158Z,308.50
2017-11-30T00:47:44.479Z,269.50
2017-11-30T00:48:44.685Z,266.50
2017-11-30T00:49:44.026Z,260.20
2017-11-30T00:50:44.255Z,283.60
2017-11-30T00:51:44.460Z,278.30
2017-11-30T00:52:44.806Z,269.60
2017-11-30T00:53:44.053Z,294.30
2017-11-30T00:54:44.612Z,276.80
2017-11-30T00:55:44.917Z,276.50
2017-11-30T00:56:44.126Z,265.80
2017-11-30T00:57:44.611Z,263.00
2017-11-30T00:58:44.867Z,248.30
2017-11-30T00:59:44.222Z,231.80
2017-11-30T01:00:44.575Z,261.30
2017-11-30T01:01:44.762Z,255.20
2017-11-30T01:02:44.022Z,284.10
2017-11-30T01:03:44.209Z,270.50
2017-11-30T01:04:44.475Z,261.00
2017-11-30T01:05:44.024Z,271.50
2017-11-30T01:06:44.255Z,256.80
2017-11-30T01:07:44.775Z,261.40
2017-11-30T01:08:43.998Z,269.10
2017-11-30T01:09:44.222Z,266.30
2017-11-30T01:10:44.476Z,271.90
2017-11-30T01:11:44.865Z,276.00
2017-11-30T01:12:44.113Z,291.70
2017-11-30T01:13:44.328Z,270.30
2017-11-30T01:14:44.566Z,289.70
2017-11-30T01:15:44.522Z,303.20
2017-11-30T01:16:44.849Z,286.90
2017-11-30T01:17:44.093Z,280.40
2017-11-30T01:18:44.499Z,284.90
2017-11-30T01:19:44.761Z,294.70
2017-11-30T01:20:44.030Z,301.20
2017-11-30T01:21:44.229Z,308.40
2017-11-30T01:22:44.395Z,273.70
2017-11-30T01:23:44.612Z,262.50
2017-11-30T01:24:44.904Z,293.90
2017-11-30T01:25:44.270Z,280.70
2017-11-30T01:26:44.731Z,279.20
2017-11-30T01:27:43.974Z,288.00
2017-11-30T01:28:44.234Z,293.90
2017-11-30T01:29:44.571Z,303.60
2017-11-30T01:30:45.025Z,289.60
2017-11-30T01:31:44.271Z,311.10
2017-11-30T01:32:44.547Z,316.20
2017-11-30T01:33:44.810Z,316.30
2017-11-30T01:34:44.062Z,313.90
2017-11-30T01:35:44.289Z,315.90
2017-11-30T01:36:44.566Z,295.20
2017-11-30T01:37:44.054Z,304.20
2017-11-30T01:38:44.409Z,314.70
2017-11-30T01:39:44.622Z,315.70
2017-11-30T01:40:44.821Z,344.20
2017-11-30T01:41:44.051Z,341.40
2017-11-30T01:42:44.803Z,297.40
2017-11-30T01:43:44.847Z,323.40
2017-11-30T01:44:44.102Z,322.00
2017-11-30T01:45:44.966Z,349.30
2017-11-30T01:46:44.302Z,345.90
2017-11-30T01:47:44.564Z,347.40
2017-11-30T01:48:44.050Z,328.20
2017-11-30T01:49:44.271Z,350.80
2017-11-30T01:50:45.460Z,331.30
2017-11-30T01:51:44.660Z,329.20
2017-11-30T01:52:43.871Z,344.00
2017-11-30T01:53:44.163Z,379.30
2017-11-30T01:54:44.368Z,383.80
2017-11-30T01:55:44.708Z,373.60
2017-11-30T01:56:44.087Z,366.20
2017-11-30T01:57:44.655Z,373.40
2017-11-30T01:58:43.894Z,391.30
2017-11-30T01:59:44.109Z,411.80
2017-11-30T02:00:44.449Z,381.90
2017-11-30T02:01:44.668Z,419.00
2017-11-30T02:02:44.025Z,419.60
2017-11-30T02:03:44.208Z,404.70
2017-11-30T02:04:44.445Z,416.70
2017-11-30T02:05:44.545Z,412.80
2017-11-30T02:06:44.678Z,392.50
2017-11-30T02:07:44.352Z,378.60
2017-11-30T02:08:43.900Z,381.80
2017-11-30T02:09:44.222Z,391.50
2017-11-30T02:10:44.677Z,371.30
2017-11-30T02:11:43.890Z,390.00
2017-11-30T02:12:44.222Z,352.20
2017-11-30T02:13:44.530Z,396.40
2017-11-30T02:14:44.930Z,385.30
2017-11-30T02:15:44.187Z,395.20
2017-11-30T02:16:44.390Z,405.70
2017-11-30T02:17:44.525Z,384.30
2017-11-30T02:18:44.164Z,385.50
2017-11-30T02:19:44.039Z,424.10
2017-11-30T02:20:44.241Z,392.30
2017-11-30T02:21:44.464Z,408.20
2017-11-30T02:22:44.724Z,401.00
2017-11-30T02:23:44.127Z,394.20
2017-11-30T02:24:44.089Z,435.90
2017-11-30T02:25:44.487Z,410.00
2017-11-30T02:26:43.905Z,467.20
2017-11-30T02:27:44.514Z,425.80
2017-11-30T02:28:44.685Z,423.40
2017-11-30T02:29:44.621Z,451.00
2017-11-30T02:30:44.518Z,437.30
2017-11-30T02:31:44.757Z,425.70
2017-11-30T02:32:43.941Z,514.50
2017-11-30T02:33:44.171Z,458.60
2017-11-30T02:34:44.496Z,471.30
2017-11-30T02:35:44.754Z,498.60
2017-11-30T02:36:43.979Z,530.00
2017-11-30T02:37:44.370Z,529.50
2017-11-30T02:38:44.661Z,476.40
2017-11-30T02:39:43.846Z,489.90
2017-11-30T02:40:44.046Z,545.80
2017-11-30T02:41:44.296Z,487.40
2017-11-30T02:42:44.608Z,546.20
2017-11-30T02:43:44.001Z,510.20
2017-11-30T02:44:44.289Z,517.30
2017-11-30T02:45:44.503Z,550.40
2017-11-30T02:46:43.868Z,516.10
2017-11-30T02:47:44.206Z,559.90
2017-11-30T02:48:44.544Z,551.80
2017-11-30T02:49:43.883Z,512.00
2017-11-30T02:50:44.121Z,560.60
2017-11-30T02:51:44.334Z,565.00
2017-11-30T02:52:44.875Z,484.10
2017-11-30T02:53:44.165Z,564.50
2017-11-30T02:54:44.445Z,640.50
2017-11-30T02:55:44.812Z,538.90
2017-11-30T02:56:44.087Z,590.20
2017-11-30T02:57:44.285Z,562.60
2017-11-30T02:58:44.328Z,555.30
2017-11-30T02:59:44.271Z,524.00
2017-11-30T03:00:44.486Z,582.80
2017-11-30T03:01:44.742Z,536.20
2017-11-30T03:02:43.985Z,536.00
2017-11-30T03:03:44.201Z,541.80
2017-11-30T03:04:44.634Z,562.00
2017-11-30T03:05:43.959Z,530.00
2017-11-30T03:06:44.254Z,584.00
2017-11-30T03:07:44.517Z,586.90
2017-11-30T03:08:44.761Z,520.00
2017-11-30T03:09:43.959Z,553.80
2017-11-30T03:10:44.171Z,568.10
2017-11-30T03:11:44.457Z,622.60
2017-11-30T03:12:44.758Z,649.80
2017-11-30T03:13:43.996Z,583.30
2017-11-30T03:14:44.285Z,625.00
2017-11-30T03:15:44.651Z,691.40
2017-11-30T03:16:44.169Z,609.50
2017-11-30T03:17:44.563Z,574.30
2017-11-30T03:18:44.800Z,630.60
2017-11-30T03:19:44.063Z,620.20
2017-11-30T03:20:44.334Z,590.10
2017-11-30T03:21:44.509Z,564.80
2017-11-30T03:22:44.656Z,565.90
2017-11-30T03:23:43.874Z,483.50
2017-11-30T03:24:44.105Z,660.30
2017-11-30T03:25:44.032Z,563.40
2017-11-30T03:26:44.208Z,563.00
2017-11-30T03:27:44.445Z,524.40
2017-11-30T03:28:44.604Z,536.60
2017-11-30T03:29:44.742Z,561.50
2017-11-30T03:30:44.005Z,560.00
2017-11-30T03:31:44.717Z,532.60
2017-11-30T03:32:43.967Z,526.40
2017-11-30T03:33:44.281Z,538.10
2017-11-30T03:34:44.464Z,497.10
2017-11-30T03:35:44.703Z,547.90
2017-11-30T03:36:43.902Z,520.40
2017-11-30T03:37:44.191Z,532.80
2017-11-30T03:38:43.825Z,534.20
2017-11-30T03:39:44.064Z,563.30
2017-11-30T03:40:44.670Z,564.10
2017-11-30T03:41:43.883Z,533.50
2017-11-30T03:42:44.153Z,515.70
2017-11-30T03:43:44.367Z,527.90
2017-11-30T03:44:44.108Z,509.10
2017-11-30T03:45:44.571Z,538.80
2017-11-30T03:46:45.070Z,490.90
2017-11-30T03:47:44.384Z,531.70
2017-11-30T03:48:44.544Z,521.20
2017-11-30T03:49:44.360Z,543.40
2017-11-30T03:50:44.302Z,578.60
2017-11-30T03:51:44.595Z,546.60
2017-11-30T03:52:44.857Z,580.50
2017-11-30T03:53:44.085Z,528.10
2017-11-30T03:54:44.494Z,534.20
2017-11-30T03:55:44.857Z,598.30
2017-11-30T03:56:44.102Z,547.30
2017-11-30T03:57:44.237Z,520.30
2017-11-30T03:58:44.412Z,530.80
2017-11-30T03:59:44.546Z,499.20
2017-11-30T04:00:44.882Z,558.70
2017-11-30T04:01:44.091Z,552.00
2017-11-30T04:02:44.334Z,562.50
2017-11-30T04:03:44.508Z,548.90
2017-11-30T04:04:44.691Z,503.80
2017-11-30T04:05:44.071Z,488.90
2017-11-30T04:06:44.309Z,494.30
2017-11-30T04:07:44.671Z,507.60
2017-11-30T04:08:43.952Z,517.80
2017-11-30T04:09:44.150Z,558.60
2017-11-30T04:10:44.346Z,513.60
2017-11-30T04:11:44.536Z,485.00
2017-11-30T04:12:44.777Z,495.80
2017-11-30T04:13:43.956Z,505.90
2017-11-30T04:14:44.192Z,577.00
2017-11-30T04:15:44.408Z,558.60
2017-11-30T04:16:44.650Z,511.30
2017-11-30T04:17:44.799Z,537.80
2017-11-30T04:18:43.993Z,516.50
2017-11-30T04:19:44.225Z,500.30
2017-11-30T04:20:44.488Z,559.10
2017-11-30T04:21:44.650Z,532.80
2017-11-30T04:22:43.938Z,532.80
2017-11-30T04:23:44.147Z,529.70
2017-11-30T04:24:44.270Z,497.90
2017-11-30T04:25:44.453Z,512.40
2017-11-30T04:26:44.621Z,514.90
2017-11-30T04:27:43.866Z,542.70
2017-11-30T04:28:44.037Z,490.20
2017-11-30T04:29:44.239Z,544.30
2017-11-30T04:30:44.438Z,547.80
2017-11-30T04:31:44.661Z,510.70
2017-11-30T04:32:44.004Z,469.70
2017-11-30T04:33:44.164Z,459.60
2017-11-30T04:34:44.418Z,498.00
2017-11-30T04:35:44.649Z,502.30
2017-11-30T04:36:44.797Z,509.70
2017-11-30T04:37:44.728Z,491.00
2017-11-30T04:38:43.964Z,492.70
2017-11-30T04:39:44.239Z,460.90
2017-11-30T04:40:44.510Z,503.70
2017-11-30T04:41:44.670Z,462.00
2017-11-30T04:42:43.948Z,461.60
2017-11-30T04:43:44.262Z,461.40
2017-11-30T04:44:44.636Z,451.30
2017-11-30T04:45:43.921Z,467.30
2017-11-30T04:46:44.075Z,466.90
2017-11-30T04:47:44.274Z,439.30
2017-11-30T04:48:44.551Z,464.00
2017-11-30T04:49:44.762Z,462.30
2017-11-30T04:50:44.103Z,466.00
2017-11-30T04:51:44.402Z,449.90
2017-11-30T04:52:44.623Z,416.90
2017-11-30T04:53:43.824Z,402.30
2017-11-30T04:54:44.050Z,427.90
2017-11-30T04:55:44.382Z,428.10
2017-11-30T04:56:54.454Z,441.70
2017-11-30T04:57:44.720Z,402.80
2017-11-30T04:58:43.844Z,410.70
2017-11-30T04:59:44.043Z,398.30
2017-11-30T05:00:44.451Z,420.40
2017-11-30T05:01:44.495Z,405.60
2017-11-30T05:02:44.807Z,401.80
2017-11-30T05:03:43.981Z,444.40
2017-11-30T05:04:44.204Z,443.00
2017-11-30T05:05:44.454Z,434.00
2017-11-30T05:06:44.637Z,398.30
2017-11-30T05:07:43.856Z,385.20
2017-11-30T05:08:44.098Z,393.40
2017-11-30T05:09:44.351Z,407.40
2017-11-30T05:10:44.598Z,422.50
2017-11-30T05:11:43.825Z,407.30
2017-11-30T05:12:44.059Z,418.10
2017-11-30T05:13:44.610Z,373.60
2017-11-30T05:14:43.858Z,385.60
2017-11-30T05:15:44.135Z,395.00
2017-11-30T05:16:44.625Z,409.50
2017-11-30T05:17:43.788Z,369.40
2017-11-30T05:18:44.048Z,376.60
2017-11-30T05:19:44.458Z,364.70
2017-11-30T05:20:44.654Z,385.40
2017-11-30T05:21:44.107Z,386.90
2017-11-30T05:22:44.551Z,399.60
2017-11-30T05:23:44.825Z,399.60
2017-11-30T05:24:44.001Z,371.10
2017-11-30T05:25:44.501Z,406.00
2017-11-30T05:26:44.818Z,390.00
2017-11-30T05:27:44.083Z,408.70
2017-11-30T05:28:44.354Z,386.20
2017-11-30T05:29:44.480Z,418.80
2017-11-30T05:30:44.764Z,406.20
2017-11-30T05:31:44.265Z,403.80
2017-11-30T05:32:44.122Z,428.20
2017-11-30T05:33:45.164Z,419.00
2017-11-30T05:34:44.508Z,449.10
2017-11-30T05:35:44.694Z,420.30
2017-11-30T05:36:43.869Z,419.60
2017-11-30T05:37:44.567Z,424.90
2017-11-30T05:38:44.930Z,431.10
2017-11-30T05:39:44.346Z,460.20
2017-11-30T05:40:44.531Z,443.10
2017-11-30T05:41:43.884Z,418.00
2017-11-30T05:42:44.276Z,446.50
2017-11-30T05:43:44.801Z,447.90
2017-11-30T05:44:44.338Z,462.10
2017-11-30T05:45:44.459Z,426.20
2017-11-30T05:46:44.795Z,424.00
2017-11-30T05:47:44.181Z,446.40
2017-11-30T05:48:44.505Z,451.00
2017-11-30T05:49:45.817Z,434.60
2017-11-30T05:50:44.523Z,468.50
2017-11-30T05:51:44.055Z,455.20
2017-11-30T05:52:44.524Z,419.80
2017-11-30T05:53:47.463Z,423.00
2017-11-30T05:54:45.335Z,471.60
2017-11-30T05:55:44.795Z,465.60
2017-11-30T05:56:44.111Z,441.30
2017-11-30T05:57:46.168Z,491.10
2017-11-30T05:58:44.484Z,416.90
2017-11-30T05:59:44.141Z,423.40
2017-11-30T06:00:44.290Z,432.60
2017-11-30T06:01:44.267Z,427.30
2017-11-30T06:02:44.637Z,459.90
2017-11-30T06:03:43.838Z,481.90
2017-11-30T06:04:44.187Z,467.00
2017-11-30T06:05:44.427Z,522.80
2017-11-30T06:06:44.727Z,453.50
2017-11-30T06:07:44.734Z,492.30
2017-11-30T06:08:43.991Z,429.70
2017-11-30T06:09:44.347Z,472.80
2017-11-30T06:10:44.598Z,459.20
2017-11-30T06:11:44.004Z,501.10
2017-11-30T06:12:44.176Z,450.60
2017-11-30T06:13:44.847Z,467.60
2017-11-30T06:14:44.345Z,450.00
2017-11-30T06:15:44.797Z,440.20
2017-11-30T06:16:43.953Z,467.40
2017-11-30T06:17:44.120Z,429.00
2017-11-30T06:18:44.339Z,477.00
2017-11-30T06:19:44.717Z,446.10
2017-11-30T06:20:43.953Z,439.70
2017-11-30T06:21:44.360Z,434.70
2017-11-30T06:22:44.469Z,438.20
2017-11-30T06:23:44.703Z,465.50
2017-11-30T06:24:44.183Z,417.60
2017-11-30T06:25:44.440Z,432.00
2017-11-30T06:26:44.710Z,422.70
2017-11-30T06:27:44.178Z,420.40
2017-11-30T06:28:44.369Z,451.50
2017-11-30T06:29:44.645Z,457.40
2017-11-30T06:30:43.915Z,481.40
2017-11-30T06:31:44.741Z,512.00
2017-11-30T06:32:44.134Z,546.70
2017-11-30T06:33:44.295Z,597.80
2017-11-30T06:34:44.863Z,473.90
2017-11-30T06:35:44.160Z,479.20
2017-11-30T06:36:44.442Z,413.20
2017-11-30T06:37:44.550Z,513.00
2017-11-30T06:38:43.790Z,479.40
2017-11-30T06:39:44.163Z,499.60
2017-11-30T06:40:44.381Z,598.50
2017-11-30T06:41:44.618Z,550.90
2017-11-30T06:42:43.940Z,513.90
2017-11-30T06:43:44.281Z,466.30
2017-11-30T06:44:44.444Z,531.50
2017-11-30T06:45:43.927Z,506.00
2017-11-30T06:46:44.772Z,569.60
2017-11-30T06:47:44.049Z,615.50
2017-11-30T06:48:44.309Z,602.40
2017-11-30T06:49:44.553Z,581.10
2017-11-30T06:50:44.200Z,556.70
2017-11-30T06:51:44.465Z,531.30
2017-11-30T06:52:44.500Z,531.40
2017-11-30T06:53:44.854Z,505.40
2017-11-30T06:54:44.842Z,652.40
2017-11-30T06:55:45.216Z,494.10
2017-11-30T06:56:44.747Z,547.50
2017-11-30T06:57:44.077Z,611.30
2017-11-30T06:58:44.365Z,574.30
2017-11-30T06:59:44.981Z,583.80
2017-11-30T07:00:44.558Z,660.70
2017-11-30T07:01:45.283Z,619.80
2017-11-30T07:02:44.995Z,546.70
2017-11-30T07:03:44.401Z,587.30
2017-11-30T07:04:44.698Z,550.20
2017-11-30T07:05:43.964Z,617.30
2017-11-30T07:06:44.521Z,601.90
2017-11-30T07:07:44.820Z,548.90
2017-11-30T07:08:44.258Z,553.10
2017-11-30T07:09:44.571Z,558.80
2017-11-30T07:10:44.208Z,550.30
2017-11-30T07:11:45.095Z,591.20
2017-11-30T07:12:44.743Z,557.20
2017-11-30T07:13:44.122Z,593.20
2017-11-30T07:14:44.633Z,487.70
2017-11-30T07:15:44.051Z,596.90
2017-11-30T07:16:44.410Z,485.20
2017-11-30T07:17:44.792Z,502.00
2017-11-30T07:18:44.047Z,631.00
2017-11-30T07:19:44.552Z,587.40
2017-11-30T07:20:44.844Z,601.30
2017-11-30T07:21:44.276Z,517.50
2017-11-30T07:22:45.332Z,630.00
2017-11-30T07:23:44.598Z,553.80
2017-11-30T07:24:44.889Z,499.50
2017-11-30T07:25:44.292Z,638.60
2017-11-30T07:26:44.642Z,543.40
2017-11-30T07:27:45.317Z,526.10
2017-11-30T07:28:44.693Z,564.00
2017-11-30T07:29:44.013Z,582.20
2017-11-30T07:30:44.270Z,581.10
2017-11-30T07:31:44.626Z,453.80
2017-11-30T07:32:44.182Z,536.90
2017-11-30T07:33:44.858Z,487.30
2017-11-30T07:34:44.315Z,517.50
2017-11-30T07:35:44.812Z,624.20
2017-11-30T07:36:44.335Z,497.50
2017-11-30T07:37:44.694Z,489.00
2017-11-30T07:38:44.185Z,460.30
2017-11-30T07:39:44.585Z,487.80
2017-11-30T07:40:44.871Z,512.20
2017-11-30T07:41:44.314Z,542.50
2017-11-30T07:42:44.692Z,518.20
2017-11-30T07:43:44.012Z,550.00
2017-11-30T07:44:44.799Z,539.90
2017-11-30T07:45:44.147Z,554.20
2017-11-30T07:46:44.477Z,568.80
2017-11-30T07:47:44.923Z,541.30
2017-11-30T07:48:44.287Z,556.40
2017-11-30T07:49:45.069Z,532.10
2017-11-30T07:50:44.409Z,532.90
2017-11-30T07:51:44.813Z,486.30
2017-11-30T07:52:44.146Z,455.80
2017-11-30T07:53:44.460Z,463.90
2017-11-30T07:54:44.972Z,421.70
2017-11-30T07:55:44.349Z,447.20
2017-11-30T07:56:44.745Z,453.80
2017-11-30T07:57:44.171Z,482.70
2017-11-30T07:58:44.489Z,490.60
2017-11-30T07:59:44.951Z,395.10
2017-11-30T08:00:44.394Z,361.10
2017-11-30T08:01:44.302Z,402.30
2017-11-30T08:02:44.979Z,423.50
2017-11-30T08:03:44.468Z,412.40
2017-11-30T08:04:45.188Z,442.60
2017-11-30T08:05:44.708Z,439.40
2017-11-30T08:06:44.153Z,470.60
2017-11-30T08:07:44.660Z,423.20
2017-11-30T08:08:44.759Z,456.40
2017-11-30T08:09:44.574Z,404.40
2017-11-30T08:10:43.494Z,404.20
2017-11-30T08:11:44.069Z,430.00
2017-11-30T08:12:43.728Z,432.60
2017-11-30T08:13:43.717Z,491.30
2017-11-30T08:14:43.611Z,450.00
2017-11-30T08:15:43.428Z,394.10
2017-11-30T08:16:44.986Z,382.10
2017-11-30T08:17:43.598Z,374.70
2017-11-30T08:18:44.965Z,399.30
2017-11-30T08:19:43.509Z,427.80
2017-11-30T08:20:44.243Z,398.70
2017-11-30T08:21:43.828Z,387.90
2017-11-30T08:22:43.377Z,386.50
2017-11-30T08:23:44.700Z,460.20
2017-11-30T08:24:43.248Z,428.00
2017-11-30T08:25:44.618Z,362.10
2017-11-30T08:26:44.100Z,380.80
2017-11-30T08:27:44.609Z,400.00
2017-11-30T08:28:44.206Z,400.10
2017-11-30T08:29:43.783Z,399.90
2017-11-30T08:30:44.177Z,442.60
2017-11-30T08:31:43.758Z,391.20
2017-11-30T08:32:43.301Z,374.50
2017-11-30T08:33:44.730Z,408.70
2017-11-30T08:34:43.493Z,432.30
2017-11-30T08:35:44.089Z,463.70
2017-11-30T08:36:44.482Z,441.80
2017-11-30T08:37:44.823Z,428.20
2017-11-30T08:38:44.267Z,429.10
2017-11-30T08:39:43.534Z,402.00
2017-11-30T08:40:44.949Z,398.20
2017-11-30T08:41:43.478Z,323.40
2017-11-30T08:42:44.099Z,403.30
2017-11-30T08:43:44.597Z,403.60
2017-11-30T08:44:44.123Z,395.70
2017-11-30T08:45:44.514Z,372.40
2017-11-30T08:46:44.127Z,332.30
2017-11-30T08:47:43.830Z,317.80
2017-11-30T08:48:43.406Z,370.90
2017-11-30T08:49:44.825Z,306.90
2017-11-30T08:50:43.497Z,321.90
2017-11-30T08:51:45.065Z,290.30
2017-11-30T08:52:44.471Z,288.80
2017-11-30T08:53:45.001Z,280.70
2017-11-30T08:54:43.638Z,280.00
2017-11-30T08:55:42.667Z,266.00
2017-11-30T08:56:42.411Z,257.30
2017-11-30T08:57:43.763Z,260.60
2017-11-30T08:58:42.779Z,239.80
2017-11-30T08:59:42.654Z,233.10
2017-11-30T09:00:42.844Z,214.30
2017-11-30T09:01:42.889Z,232.40
2017-11-30T09:02:43.073Z,212.30
2017-11-30T09:03:43.477Z,225.50
2017-11-30T09:04:42.908Z,229.00
2017-11-30T09:05:43.155Z,212.20
2017-11-30T09:06:43.069Z,181.00
2017-11-30T09:07:43.172Z,201.20
2017-11-30T09:08:43.267Z,171.20
2017-11-30T09:09:43.379Z,193.30
2017-11-30T09:10:44.763Z,187.10
2017-11-30T09:11:43.353Z,173.30
2017-11-30T09:12:44.762Z,178.70
2017-11-30T09:13:44.290Z,190.70
2017-11-30T09:14:44.866Z,167.50
2017-11-30T09:15:43.512Z,174.90
2017-11-30T09:16:44.108Z,157.70
2017-11-30T09:17:44.520Z,168.10
2017-11-30T09:18:44.984Z,192.40
2017-11-30T09:19:44.008Z,166.30
2017-11-30T09:20:44.364Z,144.90
2017-11-30T09:21:44.871Z,131.20
2017-11-30T09:22:44.272Z,142.10
2017-11-30T09:23:44.926Z,144.50
2017-11-30T09:24:44.137Z,149.70
2017-11-30T09:25:44.537Z,143.10
2017-11-30T09:26:44.020Z,140.20
2017-11-30T09:27:44.427Z,139.80
2017-11-30T09:28:44.020Z,140.30
2017-11-30T09:29:43.667Z,125.50
2017-11-30T09:30:43.220Z,115.80
2017-11-30T09:31:44.654Z,120.00
2017-11-30T09:32:43.314Z,124.20
2017-11-30T09:33:44.796Z,131.10
2017-11-30T09:34:43.399Z,117.90
2017-11-30T09:35:44.410Z,133.10
2017-11-30T09:36:44.354Z,131.20
2017-11-30T09:37:44.818Z,117.50
2017-11-30T09:38:43.401Z,110.80
2017-11-30T09:39:44.704Z,116.20
2017-11-30T09:40:44.209Z,103.70
2017-11-30T09:41:43.726Z,104.40
2017-11-30T09:42:44.095Z,97.00
2017-11-30T09:43:43.752Z,102.10
2017-11-30T09:44:44.327Z,96.00
2017-11-30T09:45:45.253Z,101.40
2017-11-30T09:46:44.627Z,79.60
2017-11-30T09:47:45.024Z,76.90
2017-11-30T09:48:43.665Z,70.80
2017-11-30T09:49:43.378Z,68.50
2017-11-30T09:50:44.101Z,77.00
2017-11-30T09:51:44.526Z,74.20
2017-11-30T09:52:43.242Z,65.50
2017-11-30T09:53:44.753Z,65.50
2017-11-30T09:54:43.380Z,71.10
2017-11-30T09:55:43.997Z,59.20
2017-11-30T09:56:44.192Z,58.20
2017-11-30T09:57:44.651Z,55.90
2017-11-30T09:58:43.932Z,58.20
2017-11-30T09:59:44.281Z,58.50
2017-11-30T10:00:44.787Z,55.20
2017-11-30T10:01:44.180Z,64.20
2017-11-30T10:02:43.860Z,61.70
2017-11-30T10:03:43.491Z,58.10
2017-11-30T10:04:44.874Z,63.30
2017-11-30T10:05:44.256Z,58.60
2017-11-30T10:06:43.841Z,59.90
2017-11-30T10:07:43.381Z,62.20
2017-11-30T10:08:44.013Z,64.90
2017-11-30T10:09:44.344Z,49.00
2017-11-30T10:10:44.029Z,58.10
2017-11-30T10:11:44.861Z,55.90
2017-11-30T10:12:44.242Z,62.00
2017-11-30T10:13:44.637Z,61.80
2017-11-30T10:14:44.983Z,64.60
2017-11-30T10:15:43.725Z,63.70
2017-11-30T10:16:43.338Z,60.20
2017-11-30T10:17:44.719Z,70.30
2017-11-30T10:19:07.695Z,67.20
2017-11-30T10:20:10.222Z,70.10
2017-11-30T10:21:09.801Z,60.90
2017-11-30T10:22:08.921Z,71.10
2017-11-30T10:23:08.279Z,61.60
2017-11-30T10:24:08.323Z,69.00
2017-11-30T10:25:07.851Z,72.30
2017-11-30T10:26:09.136Z,70.20
2017-11-30T10:27:07.743Z,70.40
2017-11-30T10:28:09.483Z,72.50
2017-11-30T10:29:09.608Z,70.70
2017-11-30T10:30:09.786Z,64.80
2017-11-30T10:31:09.423Z,64.10
2017-11-30T10:32:08.332Z,58.80
2017-11-30T10:33:08.961Z,63.20
2017-11-30T10:34:10.753Z,67.70
2017-11-30T10:35:09.475Z,70.20
2017-11-30T10:36:09.393Z,65.90
2017-11-30T10:37:09.076Z,62.50
2017-11-30T10:38:09.164Z,59.90
2017-11-30T10:39:09.488Z,55.90
2017-11-30T10:40:08.570Z,61.00
2017-11-30T10:41:08.315Z,58.00
2017-11-30T10:42:08.628Z,58.50
2017-11-30T10:43:08.783Z,55.90
2017-11-30T10:44:09.734Z,59.60
2017-11-30T10:45:08.392Z,67.50
2017-11-30T10:46:08.359Z,62.60
2017-11-30T10:47:09.333Z,54.10
2017-11-30T10:48:09.813Z,64.80
2017-11-30T10:49:09.326Z,61.50
2017-11-30T10:50:10.338Z,63.50
2017-11-30T10:51:09.042Z,56.10
2017-11-30T10:52:08.332Z,62.80
2017-11-30T10:53:08.697Z,65.40
2017-11-30T10:54:09.140Z,67.70
2017-11-30T10:55:08.686Z,71.30
2017-11-30T10:56:09.077Z,64.30
2017-11-30T10:57:09.398Z,59.10
2017-11-30T10:58:08.062Z,60.40
2017-11-30T10:59:09.692Z,56.00
2017-11-30T11:00:08.859Z,61.20
2017-11-30T11:01:09.221Z,66.10
2017-11-30T11:02:07.808Z,73.50
2017-11-30T11:03:09.229Z,70.70
2017-11-30T11:04:08.089Z,76.30
2017-11-30T11:05:08.663Z,74.40
2017-11-30T11:06:08.262Z,75.90
2017-11-30T11:07:07.832Z,67.30
2017-11-30T11:08:09.253Z,83.90
2017-11-30T11:09:08.633Z,75.30
2017-11-30T11:10:08.160Z,91.10
2017-11-30T11:11:07.760Z,87.20
2017-11-30T11:12:09.205Z,86.00
2017-11-30T11:13:08.473Z,82.90
2017-11-30T11:14:07.965Z,87.70
2017-11-30T11:15:08.372Z,84.30
2017-11-30T11:16:09.326Z,96.60
2017-11-30T11:17:08.705Z,92.30
2017-11-30T11:18:08.300Z,102.30
2017-11-30T11:19:07.795Z,95.40
2017-11-30T11:20:08.394Z,101.50
2017-11-30T11:21:09.000Z,105.30
2017-11-30T11:22:08.453Z,99.90
2017-11-30T11:23:08.093Z,108.90
2017-11-30T11:24:07.881Z,97.00
2017-11-30T11:25:08.388Z,97.20
2017-11-30T11:26:07.880Z,99.90
2017-11-30T11:27:09.321Z,104.30
2017-11-30T11:28:07.882Z,106.50
2017-11-30T11:29:08.476Z,119.80
2017-11-30T11:30:08.715Z,118.70
2017-11-30T11:31:09.171Z,119.00
2017-11-30T11:32:07.908Z,115.30
2017-11-30T11:33:09.488Z,108.10
2017-11-30T11:34:08.450Z,102.80
2017-11-30T11:35:08.339Z,100.00
2017-11-30T11:36:09.081Z,100.60
2017-11-30T11:37:08.547Z,103.20
2017-11-30T11:38:08.245Z,101.40
2017-11-30T11:39:08.805Z,109.30
2017-11-30T11:40:09.212Z,94.30
2017-11-30T11:41:07.782Z,101.40
2017-11-30T11:42:08.395Z,101.60
2017-11-30T11:43:08.872Z,113.90
2017-11-30T11:44:08.483Z,109.80
2017-11-30T11:45:08.102Z,103.80
2017-11-30T11:46:08.587Z,111.10
2017-11-30T11:47:08.254Z,112.60
2017-11-30T11:48:08.581Z,94.70
2017-11-30T11:49:08.905Z,98.30
2017-11-30T11:50:09.258Z,114.80
2017-11-30T11:51:08.824Z,128.90
2017-11-30T11:52:08.365Z,108.50
2017-11-30T11:53:07.995Z,118.50
2017-11-30T11:54:08.644Z,110.60
2017-11-30T11:55:09.095Z,113.70
2017-11-30T11:56:08.686Z,121.90
2017-11-30T11:57:09.142Z,122.70
2017-11-30T11:58:07.786Z,115.90
2017-11-30T11:59:08.397Z,123.60
2017-11-30T12:00:08.074Z,127.30
2017-11-30T12:01:08.669Z,116.70
2017-11-30T12:02:09.059Z,115.00
2017-11-30T12:03:08.893Z,118.40
2017-11-30T12:04:09.313Z,120.50
2017-11-30T12:05:08.716Z,96.90
2017-11-30T12:06:09.167Z,107.50
2017-11-30T12:07:07.997Z,120.10
2017-11-30T12:08:09.527Z,112.10
2017-11-30T12:09:08.877Z,99.30
2017-11-30T12:10:09.301Z,109.00
2017-11-30T12:11:08.660Z,107.80
2017-11-30T12:12:09.116Z,103.20
2017-11-30T12:13:09.456Z,96.10
2017-11-30T12:14:07.797Z,87.80
2017-11-30T12:15:08.298Z,89.90
2017-11-30T12:16:08.554Z,91.00
2017-11-30T12:17:08.557Z,98.60
2017-11-30T12:18:08.894Z,102.80
2017-11-30T12:19:08.397Z,91.90
2017-11-30T12:20:08.740Z,89.20
2017-11-30T12:21:08.309Z,94.90
2017-11-30T12:22:08.210Z,86.10
2017-11-30T12:23:07.810Z,92.20
2017-11-30T12:24:08.361Z,85.00
2017-11-30T12:25:07.952Z,94.60
2017-11-30T12:26:08.488Z,81.70
2017-11-30T12:27:08.118Z,91.50
2017-11-30T12:28:08.672Z,97.00
2017-11-30T12:29:08.278Z,101.30
2017-11-30T12:30:08.661Z,94.00
2017-11-30T12:31:08.203Z,92.00
2017-11-30T12:32:07.983Z,85.40